sensor_id;sensor_type;location;lat;lon;timestamp;P1;durP1;ratioP1;P2;durP2;ratioP2
23714;SDS011;12036;50.858;4.472;2024-01-27T00:01:49;13.90;;;3.58;;
23714;SDS011;12036;50.858;4.472;2024-01-27T00:04:15;10.93;;;4.45;;
23714;SDS011;12036;50.858;4.472;2024-01-27T00:06:41;16.55;;;3.90;;
23714;SDS011;12036;50.858;4.472;2024-01-27T00:09:07;11.15;;;4.03;;
23714;SDS011;12036;50.858;4.472;2024-01-27T00:11:32;9.82;;;3.75;;
23714;SDS011;12036;50.858;4.472;2024-01-27T00:13:58;7.55;;;3.53;;
23714;SDS011;12036;50.858;4.472;2024-01-27T00:16:28;6.95;;;3.38;;
23714;SDS011;12036;50.858;4.472;2024-01-27T00:18:53;11.88;;;4.13;;
23714;SDS011;12036;50.858;4.472;2024-01-27T00:21:19;13.00;;;3.83;;
23714;SDS011;12036;50.858;4.472;2024-01-27T00:23:44;15.95;;;4.55;;
23714;SDS011;12036;50.858;4.472;2024-01-27T00:26:10;17.52;;;6.85;;
23714;SDS011;12036;50.858;4.472;2024-01-27T00:28:36;14.23;;;4.57;;
23714;SDS011;12036;50.858;4.472;2024-01-27T00:31:02;13.55;;;3.70;;
23714;SDS011;12036;50.858;4.472;2024-01-27T00:33:27;11.10;;;3.97;;
23714;SDS011;12036;50.858;4.472;2024-01-27T00:35:53;15.50;;;3.78;;
23714;SDS011;12036;50.858;4.472;2024-01-27T00:38:19;14.23;;;4.13;;
23714;SDS011;12036;50.858;4.472;2024-01-27T00:40:44;9.32;;;3.78;;
23714;SDS011;12036;50.858;4.472;2024-01-27T00:43:10;14.77;;;3.70;;
23714;SDS011;12036;50.858;4.472;2024-01-27T00:45:36;8.13;;;3.45;;
23714;SDS011;12036;50.858;4.472;2024-01-27T00:48:01;13.70;;;3.53;;
23714;SDS011;12036;50.858;4.472;2024-01-27T00:50:27;9.52;;;3.38;;
23714;SDS011;12036;50.858;4.472;2024-01-27T00:52:53;9.88;;;4.00;;
23714;SDS011;12036;50.858;4.472;2024-01-27T00:55:18;8.68;;;3.35;;
23714;SDS011;12036;50.858;4.472;2024-01-27T00:57:44;10.68;;;3.63;;
23714;SDS011;12036;50.858;4.472;2024-01-27T01:00:10;12.40;;;4.13;;
23714;SDS011;12036;50.858;4.472;2024-01-27T01:02:36;11.90;;;3.40;;
23714;SDS011;12036;50.858;4.472;2024-01-27T01:05:03;10.32;;;3.70;;
23714;SDS011;12036;50.858;4.472;2024-01-27T01:07:29;11.38;;;3.78;;
23714;SDS011;12036;50.858;4.472;2024-01-27T01:09:56;14.82;;;4.10;;
23714;SDS011;12036;50.858;4.472;2024-01-27T01:12:21;14.27;;;3.67;;
23714;SDS011;12036;50.858;4.472;2024-01-27T01:14:47;14.23;;;4.18;;
23714;SDS011;12036;50.858;4.472;2024-01-27T01:17:13;9.63;;;3.67;;
23714;SDS011;12036;50.858;4.472;2024-01-27T01:19:39;12.65;;;3.80;;
23714;SDS011;12036;50.858;4.472;2024-01-27T01:22:05;13.57;;;3.80;;
23714;SDS011;12036;50.858;4.472;2024-01-27T01:24:32;14.88;;;4.22;;
23714;SDS011;12036;50.858;4.472;2024-01-27T01:26:58;10.15;;;3.67;;
23714;SDS011;12036;50.858;4.472;2024-01-27T01:29:24;15.43;;;4.40;;
23714;SDS011;12036;50.858;4.472;2024-01-27T01:31:50;13.63;;;4.70;;
23714;SDS011;12036;50.858;4.472;2024-01-27T01:34:15;8.90;;;3.47;;
23714;SDS011;12036;50.858;4.472;2024-01-27T01:36:41;14.70;;;4.22;;
23714;SDS011;12036;50.858;4.472;2024-01-27T01:39:07;18.38;;;4.40;;
23714;SDS011;12036;50.858;4.472;2024-01-27T01:41:36;9.52;;;3.92;;
23714;SDS011;12036;50.858;4.472;2024-01-27T01:44:01;13.43;;;4.32;;
23714;SDS011;12036;50.858;4.472;2024-01-27T01:46:27;16.05;;;5.15;;
23714;SDS011;12036;50.858;4.472;2024-01-27T01:48:53;14.07;;;4.38;;
23714;SDS011;12036;50.858;4.472;2024-01-27T01:51:19;10.43;;;3.63;;
23714;SDS011;12036;50.858;4.472;2024-01-27T01:53:45;17.67;;;4.45;;
23714;SDS011;12036;50.858;4.472;2024-01-27T01:56:14;12.38;;;4.15;;
23714;SDS011;12036;50.858;4.472;2024-01-27T01:58:40;9.63;;;3.78;;
23714;SDS011;12036;50.858;4.472;2024-01-27T02:01:06;13.68;;;4.68;;
23714;SDS011;12036;50.858;4.472;2024-01-27T02:03:32;11.82;;;4.20;;
23714;SDS011;12036;50.858;4.472;2024-01-27T02:05:58;15.38;;;4.88;;
23714;SDS011;12036;50.858;4.472;2024-01-27T02:08:23;12.68;;;4.05;;
23714;SDS011;12036;50.858;4.472;2024-01-27T02:10:49;16.58;;;4.82;;
23714;SDS011;12036;50.858;4.472;2024-01-27T02:15:44;14.13;;;4.88;;
23714;SDS011;12036;50.858;4.472;2024-01-27T02:18:10;13.50;;;5.05;;
23714;SDS011;12036;50.858;4.472;2024-01-27T02:20:35;11.88;;;4.53;;
23714;SDS011;12036;50.858;4.472;2024-01-27T02:23:02;15.93;;;4.85;;
23714;SDS011;12036;50.858;4.472;2024-01-27T02:25:29;15.30;;;4.68;;
23714;SDS011;12036;50.858;4.472;2024-01-27T02:27:56;11.93;;;4.85;;
23714;SDS011;12036;50.858;4.472;2024-01-27T02:30:21;14.00;;;5.00;;
23714;SDS011;12036;50.858;4.472;2024-01-27T02:32:47;17.73;;;4.80;;
23714;SDS011;12036;50.858;4.472;2024-01-27T02:35:13;15.50;;;4.97;;
23714;SDS011;12036;50.858;4.472;2024-01-27T02:37:39;11.35;;;4.55;;
23714;SDS011;12036;50.858;4.472;2024-01-27T02:40:05;14.52;;;5.00;;
23714;SDS011;12036;50.858;4.472;2024-01-27T02:42:32;19.00;;;4.90;;
23714;SDS011;12036;50.858;4.472;2024-01-27T02:44:58;11.13;;;4.38;;
23714;SDS011;12036;50.858;4.472;2024-01-27T02:47:24;20.92;;;4.63;;
23714;SDS011;12036;50.858;4.472;2024-01-27T02:49:49;13.80;;;4.47;;
23714;SDS011;12036;50.858;4.472;2024-01-27T02:52:15;16.50;;;4.50;;
23714;SDS011;12036;50.858;4.472;2024-01-27T02:54:40;14.60;;;4.50;;
23714;SDS011;12036;50.858;4.472;2024-01-27T02:57:06;11.60;;;4.72;;
23714;SDS011;12036;50.858;4.472;2024-01-27T02:59:32;15.80;;;4.63;;
23714;SDS011;12036;50.858;4.472;2024-01-27T03:01:57;21.15;;;5.00;;
23714;SDS011;12036;50.858;4.472;2024-01-27T03:04:23;11.68;;;4.40;;
23714;SDS011;12036;50.858;4.472;2024-01-27T03:06:49;10.73;;;4.18;;
23714;SDS011;12036;50.858;4.472;2024-01-27T03:09:14;13.77;;;4.68;;
23714;SDS011;12036;50.858;4.472;2024-01-27T03:11:40;15.75;;;4.50;;
23714;SDS011;12036;50.858;4.472;2024-01-27T03:14:05;17.20;;;4.82;;
23714;SDS011;12036;50.858;4.472;2024-01-27T03:16:31;16.40;;;4.72;;
23714;SDS011;12036;50.858;4.472;2024-01-27T03:18:57;18.50;;;5.45;;
23714;SDS011;12036;50.858;4.472;2024-01-27T03:21:23;14.27;;;4.57;;
23714;SDS011;12036;50.858;4.472;2024-01-27T03:23:48;15.20;;;5.72;;
23714;SDS011;12036;50.858;4.472;2024-01-27T03:26:14;11.25;;;4.82;;
23714;SDS011;12036;50.858;4.472;2024-01-27T03:28:40;13.18;;;4.50;;
23714;SDS011;12036;50.858;4.472;2024-01-27T03:31:06;12.27;;;5.05;;
23714;SDS011;12036;50.858;4.472;2024-01-27T03:33:31;12.63;;;4.55;;
23714;SDS011;12036;50.858;4.472;2024-01-27T03:35:57;12.50;;;4.32;;
23714;SDS011;12036;50.858;4.472;2024-01-27T03:38:23;10.82;;;4.50;;
23714;SDS011;12036;50.858;4.472;2024-01-27T03:40:48;11.07;;;4.93;;
23714;SDS011;12036;50.858;4.472;2024-01-27T03:43:14;12.75;;;5.00;;
23714;SDS011;12036;50.858;4.472;2024-01-27T03:45:41;11.32;;;4.95;;
23714;SDS011;12036;50.858;4.472;2024-01-27T03:48:06;15.80;;;5.03;;
23714;SDS011;12036;50.858;4.472;2024-01-27T03:50:32;12.02;;;4.45;;
23714;SDS011;12036;50.858;4.472;2024-01-27T03:52:58;17.05;;;5.38;;
23714;SDS011;12036;50.858;4.472;2024-01-27T03:55:23;15.75;;;4.68;;
23714;SDS011;12036;50.858;4.472;2024-01-27T03:57:49;14.77;;;4.65;;
23714;SDS011;12036;50.858;4.472;2024-01-27T04:00:14;13.48;;;4.93;;
23714;SDS011;12036;50.858;4.472;2024-01-27T04:02:40;13.48;;;4.60;;
23714;SDS011;12036;50.858;4.472;2024-01-27T04:05:06;14.25;;;5.00;;
23714;SDS011;12036;50.858;4.472;2024-01-27T04:07:32;13.35;;;5.05;;
23714;SDS011;12036;50.858;4.472;2024-01-27T04:09:57;14.27;;;4.75;;
23714;SDS011;12036;50.858;4.472;2024-01-27T04:12:23;16.20;;;4.40;;
23714;SDS011;12036;50.858;4.472;2024-01-27T04:14:49;16.63;;;5.47;;
23714;SDS011;12036;50.858;4.472;2024-01-27T04:17:14;13.80;;;4.97;;
23714;SDS011;12036;50.858;4.472;2024-01-27T04:19:40;19.27;;;5.22;;
23714;SDS011;12036;50.858;4.472;2024-01-27T04:22:05;16.45;;;4.65;;
23714;SDS011;12036;50.858;4.472;2024-01-27T04:24:32;15.07;;;4.75;;
23714;SDS011;12036;50.858;4.472;2024-01-27T04:26:58;13.63;;;5.07;;
23714;SDS011;12036;50.858;4.472;2024-01-27T04:29:25;19.08;;;4.72;;
23714;SDS011;12036;50.858;4.472;2024-01-27T04:31:50;20.90;;;4.97;;
23714;SDS011;12036;50.858;4.472;2024-01-27T04:34:16;12.30;;;4.72;;
23714;SDS011;12036;50.858;4.472;2024-01-27T04:36:42;9.60;;;4.57;;
23714;SDS011;12036;50.858;4.472;2024-01-27T04:39:07;17.77;;;5.38;;
23714;SDS011;12036;50.858;4.472;2024-01-27T04:41:33;16.98;;;4.65;;
23714;SDS011;12036;50.858;4.472;2024-01-27T04:43:58;13.48;;;4.80;;
23714;SDS011;12036;50.858;4.472;2024-01-27T04:46:24;16.52;;;5.35;;
23714;SDS011;12036;50.858;4.472;2024-01-27T04:48:50;23.30;;;5.38;;
23714;SDS011;12036;50.858;4.472;2024-01-27T04:51:15;15.75;;;5.50;;
23714;SDS011;12036;50.858;4.472;2024-01-27T04:53:41;15.82;;;5.43;;
23714;SDS011;12036;50.858;4.472;2024-01-27T04:56:07;19.17;;;5.53;;
23714;SDS011;12036;50.858;4.472;2024-01-27T04:58:34;17.15;;;5.05;;
23714;SDS011;12036;50.858;4.472;2024-01-27T05:01:01;17.23;;;4.72;;
23714;SDS011;12036;50.858;4.472;2024-01-27T05:03:27;16.70;;;5.35;;
23714;SDS011;12036;50.858;4.472;2024-01-27T05:05:53;11.52;;;4.70;;
23714;SDS011;12036;50.858;4.472;2024-01-27T05:08:19;21.25;;;5.65;;
23714;SDS011;12036;50.858;4.472;2024-01-27T05:10:44;17.10;;;5.25;;
23714;SDS011;12036;50.858;4.472;2024-01-27T05:13:10;22.33;;;5.45;;
23714;SDS011;12036;50.858;4.472;2024-01-27T05:15:36;15.10;;;5.28;;
23714;SDS011;12036;50.858;4.472;2024-01-27T05:18:01;14.95;;;5.00;;
23714;SDS011;12036;50.858;4.472;2024-01-27T05:20:27;15.65;;;5.20;;
23714;SDS011;12036;50.858;4.472;2024-01-27T05:22:53;16.38;;;5.20;;
23714;SDS011;12036;50.858;4.472;2024-01-27T05:25:18;13.30;;;5.35;;
23714;SDS011;12036;50.858;4.472;2024-01-27T05:27:44;15.85;;;5.25;;
23714;SDS011;12036;50.858;4.472;2024-01-27T05:30:10;16.45;;;5.53;;
23714;SDS011;12036;50.858;4.472;2024-01-27T05:32:36;14.57;;;4.72;;
23714;SDS011;12036;50.858;4.472;2024-01-27T05:35:01;15.55;;;5.82;;
23714;SDS011;12036;50.858;4.472;2024-01-27T05:37:30;17.58;;;4.97;;
23714;SDS011;12036;50.858;4.472;2024-01-27T05:39:55;14.68;;;5.10;;
23714;SDS011;12036;50.858;4.472;2024-01-27T05:42:21;14.40;;;4.95;;
23714;SDS011;12036;50.858;4.472;2024-01-27T05:44:47;16.02;;;5.90;;
23714;SDS011;12036;50.858;4.472;2024-01-27T05:47:12;17.23;;;4.75;;
23714;SDS011;12036;50.858;4.472;2024-01-27T05:49:38;15.82;;;5.50;;
23714;SDS011;12036;50.858;4.472;2024-01-27T05:52:04;12.65;;;4.70;;
23714;SDS011;12036;50.858;4.472;2024-01-27T05:54:30;16.17;;;5.15;;
23714;SDS011;12036;50.858;4.472;2024-01-27T05:56:55;19.23;;;5.45;;
23714;SDS011;12036;50.858;4.472;2024-01-27T05:59:21;16.42;;;4.75;;
23714;SDS011;12036;50.858;4.472;2024-01-27T06:01:47;18.00;;;6.25;;
23714;SDS011;12036;50.858;4.472;2024-01-27T06:04:12;17.00;;;5.50;;
23714;SDS011;12036;50.858;4.472;2024-01-27T06:06:38;17.55;;;5.22;;
23714;SDS011;12036;50.858;4.472;2024-01-27T06:09:07;16.23;;;5.55;;
23714;SDS011;12036;50.858;4.472;2024-01-27T06:11:36;17.63;;;5.47;;
23714;SDS011;12036;50.858;4.472;2024-01-27T06:14:02;14.63;;;5.63;;
23714;SDS011;12036;50.858;4.472;2024-01-27T06:16:28;13.60;;;4.90;;
23714;SDS011;12036;50.858;4.472;2024-01-27T06:18:54;17.63;;;5.60;;
23714;SDS011;12036;50.858;4.472;2024-01-27T06:21:20;15.00;;;5.05;;
23714;SDS011;12036;50.858;4.472;2024-01-27T06:23:46;19.67;;;4.88;;
23714;SDS011;12036;50.858;4.472;2024-01-27T06:26:12;12.93;;;5.40;;
23714;SDS011;12036;50.858;4.472;2024-01-27T06:28:39;12.75;;;4.82;;
23714;SDS011;12036;50.858;4.472;2024-01-27T06:31:05;14.80;;;5.22;;
23714;SDS011;12036;50.858;4.472;2024-01-27T06:33:32;14.82;;;4.82;;
23714;SDS011;12036;50.858;4.472;2024-01-27T06:35:59;16.85;;;5.20;;
23714;SDS011;12036;50.858;4.472;2024-01-27T06:38:26;12.25;;;4.60;;
23714;SDS011;12036;50.858;4.472;2024-01-27T06:40:52;16.75;;;5.05;;
23714;SDS011;12036;50.858;4.472;2024-01-27T06:43:17;13.43;;;4.63;;
23714;SDS011;12036;50.858;4.472;2024-01-27T06:45:43;13.77;;;5.05;;
23714;SDS011;12036;50.858;4.472;2024-01-27T06:48:09;17.65;;;5.53;;
23714;SDS011;12036;50.858;4.472;2024-01-27T06:50:35;14.82;;;4.90;;
23714;SDS011;12036;50.858;4.472;2024-01-27T06:53:00;11.77;;;5.15;;
23714;SDS011;12036;50.858;4.472;2024-01-27T06:55:26;14.65;;;5.18;;
23714;SDS011;12036;50.858;4.472;2024-01-27T06:57:52;13.98;;;4.85;;
23714;SDS011;12036;50.858;4.472;2024-01-27T07:00:18;13.98;;;4.60;;
23714;SDS011;12036;50.858;4.472;2024-01-27T07:02:44;12.63;;;4.72;;
23714;SDS011;12036;50.858;4.472;2024-01-27T07:05:10;13.88;;;5.20;;
23714;SDS011;12036;50.858;4.472;2024-01-27T07:07:37;17.33;;;4.93;;
23714;SDS011;12036;50.858;4.472;2024-01-27T07:10:04;16.65;;;4.72;;
23714;SDS011;12036;50.858;4.472;2024-01-27T07:12:32;12.02;;;4.82;;
23714;SDS011;12036;50.858;4.472;2024-01-27T07:14:58;12.30;;;4.45;;
23714;SDS011;12036;50.858;4.472;2024-01-27T07:17:25;21.67;;;5.15;;
23714;SDS011;12036;50.858;4.472;2024-01-27T07:19:52;13.35;;;4.47;;
23714;SDS011;12036;50.858;4.472;2024-01-27T07:22:17;13.52;;;4.80;;
23714;SDS011;12036;50.858;4.472;2024-01-27T07:24:43;16.25;;;4.97;;
23714;SDS011;12036;50.858;4.472;2024-01-27T07:27:11;16.92;;;5.05;;
23714;SDS011;12036;50.858;4.472;2024-01-27T07:29:37;17.85;;;4.82;;
23714;SDS011;12036;50.858;4.472;2024-01-27T07:32:03;14.63;;;5.28;;
23714;SDS011;12036;50.858;4.472;2024-01-27T07:34:29;11.35;;;5.03;;
23714;SDS011;12036;50.858;4.472;2024-01-27T07:36:55;15.35;;;5.07;;
23714;SDS011;12036;50.858;4.472;2024-01-27T07:39:21;22.23;;;5.35;;
23714;SDS011;12036;50.858;4.472;2024-01-27T07:41:46;17.65;;;4.85;;
23714;SDS011;12036;50.858;4.472;2024-01-27T07:44:14;22.27;;;5.80;;
23714;SDS011;12036;50.858;4.472;2024-01-27T07:46:40;19.23;;;5.70;;
23714;SDS011;12036;50.858;4.472;2024-01-27T07:49:07;23.50;;;5.53;;
23714;SDS011;12036;50.858;4.472;2024-01-27T07:51:34;14.90;;;5.25;;
23714;SDS011;12036;50.858;4.472;2024-01-27T07:53:59;12.05;;;4.95;;
23714;SDS011;12036;50.858;4.472;2024-01-27T07:56:26;15.05;;;5.15;;
23714;SDS011;12036;50.858;4.472;2024-01-27T07:58:52;20.77;;;5.65;;
23714;SDS011;12036;50.858;4.472;2024-01-27T08:01:18;15.82;;;4.60;;
23714;SDS011;12036;50.858;4.472;2024-01-27T08:03:44;16.02;;;4.93;;
23714;SDS011;12036;50.858;4.472;2024-01-27T08:06:16;13.98;;;4.90;;
23714;SDS011;12036;50.858;4.472;2024-01-27T08:08:44;19.75;;;4.65;;
23714;SDS011;12036;50.858;4.472;2024-01-27T08:11:10;20.60;;;5.00;;
23714;SDS011;12036;50.858;4.472;2024-01-27T08:13:36;15.50;;;4.50;;
23714;SDS011;12036;50.858;4.472;2024-01-27T08:16:02;15.25;;;4.50;;
23714;SDS011;12036;50.858;4.472;2024-01-27T08:18:30;18.00;;;4.70;;
23714;SDS011;12036;50.858;4.472;2024-01-27T08:20:56;19.48;;;5.03;;
23714;SDS011;12036;50.858;4.472;2024-01-27T08:23:21;16.88;;;4.80;;
23714;SDS011;12036;50.858;4.472;2024-01-27T08:25:47;23.40;;;5.20;;
23714;SDS011;12036;50.858;4.472;2024-01-27T08:28:17;15.05;;;5.22;;
23714;SDS011;12036;50.858;4.472;2024-01-27T08:30:42;16.25;;;5.55;;
23714;SDS011;12036;50.858;4.472;2024-01-27T08:33:08;20.50;;;6.28;;
23714;SDS011;12036;50.858;4.472;2024-01-27T08:35:34;17.48;;;5.97;;
23714;SDS011;12036;50.858;4.472;2024-01-27T08:37:59;17.15;;;5.50;;
23714;SDS011;12036;50.858;4.472;2024-01-27T08:40:25;25.27;;;4.47;;
23714;SDS011;12036;50.858;4.472;2024-01-27T08:42:50;21.75;;;5.28;;
23714;SDS011;12036;50.858;4.472;2024-01-27T08:45:16;16.00;;;5.15;;
23714;SDS011;12036;50.858;4.472;2024-01-27T08:47:42;14.95;;;5.03;;
23714;SDS011;12036;50.858;4.472;2024-01-27T08:50:09;20.50;;;4.45;;
23714;SDS011;12036;50.858;4.472;2024-01-27T08:52:35;20.48;;;4.82;;
23714;SDS011;12036;50.858;4.472;2024-01-27T08:55:01;12.15;;;3.75;;
23714;SDS011;12036;50.858;4.472;2024-01-27T08:57:27;15.70;;;4.13;;
23714;SDS011;12036;50.858;4.472;2024-01-27T08:59:52;13.23;;;3.97;;
23714;SDS011;12036;50.858;4.472;2024-01-27T09:02:18;16.20;;;4.25;;
23714;SDS011;12036;50.858;4.472;2024-01-27T09:04:44;17.40;;;4.85;;
23714;SDS011;12036;50.858;4.472;2024-01-27T09:07:09;21.48;;;4.57;;
23714;SDS011;12036;50.858;4.472;2024-01-27T09:09:36;14.85;;;3.83;;
23714;SDS011;12036;50.858;4.472;2024-01-27T09:12:03;17.52;;;3.67;;
23714;SDS011;12036;50.858;4.472;2024-01-27T09:14:29;18.10;;;4.32;;
23714;SDS011;12036;50.858;4.472;2024-01-27T09:16:55;16.42;;;4.78;;
23714;SDS011;12036;50.858;4.472;2024-01-27T09:19:20;13.65;;;4.57;;
23714;SDS011;12036;50.858;4.472;2024-01-27T09:21:47;30.67;;;7.05;;
23714;SDS011;12036;50.858;4.472;2024-01-27T09:24:12;22.27;;;6.30;;
23714;SDS011;12036;50.858;4.472;2024-01-27T09:26:38;20.80;;;5.90;;
23714;SDS011;12036;50.858;4.472;2024-01-27T09:29:04;22.25;;;5.97;;
23714;SDS011;12036;50.858;4.472;2024-01-27T09:31:29;20.13;;;6.28;;
23714;SDS011;12036;50.858;4.472;2024-01-27T09:33:55;33.45;;;7.45;;
23714;SDS011;12036;50.858;4.472;2024-01-27T09:36:21;22.85;;;6.05;;
23714;SDS011;12036;50.858;4.472;2024-01-27T09:38:47;17.52;;;5.25;;
23714;SDS011;12036;50.858;4.472;2024-01-27T09:41:13;16.42;;;3.70;;
23714;SDS011;12036;50.858;4.472;2024-01-27T09:43:43;19.17;;;3.42;;
23714;SDS011;12036;50.858;4.472;2024-01-27T09:46:10;17.40;;;3.05;;
23714;SDS011;12036;50.858;4.472;2024-01-27T09:48:36;23.13;;;3.13;;
23714;SDS011;12036;50.858;4.472;2024-01-27T09:51:03;15.20;;;3.33;;
23714;SDS011;12036;50.858;4.472;2024-01-27T09:53:29;14.85;;;3.10;;
23714;SDS011;12036;50.858;4.472;2024-01-27T09:55:56;17.10;;;3.08;;
23714;SDS011;12036;50.858;4.472;2024-01-27T09:58:24;14.10;;;2.47;;
23714;SDS011;12036;50.858;4.472;2024-01-27T10:00:53;7.13;;;1.83;;
23714;SDS011;12036;50.858;4.472;2024-01-27T10:03:23;10.75;;;3.25;;
23714;SDS011;12036;50.858;4.472;2024-01-27T10:05:51;16.80;;;2.53;;
23714;SDS011;12036;50.858;4.472;2024-01-27T10:08:21;11.17;;;3.50;;
23714;SDS011;12036;50.858;4.472;2024-01-27T10:10:48;10.60;;;4.18;;
23714;SDS011;12036;50.858;4.472;2024-01-27T10:18:26;8.45;;;2.22;;
23714;SDS011;12036;50.858;4.472;2024-01-27T10:20:52;9.77;;;2.03;;
23714;SDS011;12036;50.858;4.472;2024-01-27T10:23:17;9.88;;;2.00;;
23714;SDS011;12036;50.858;4.472;2024-01-27T10:25:43;10.95;;;1.92;;
23714;SDS011;12036;50.858;4.472;2024-01-27T10:28:09;12.07;;;2.45;;
23714;SDS011;12036;50.858;4.472;2024-01-27T10:30:35;13.98;;;2.65;;
23714;SDS011;12036;50.858;4.472;2024-01-27T10:33:01;7.65;;;2.17;;
23714;SDS011;12036;50.858;4.472;2024-01-27T10:35:27;13.30;;;1.98;;
23714;SDS011;12036;50.858;4.472;2024-01-27T10:37:53;8.98;;;2.00;;
23714;SDS011;12036;50.858;4.472;2024-01-27T10:40:20;9.30;;;2.42;;
23714;SDS011;12036;50.858;4.472;2024-01-27T10:42:51;11.02;;;2.45;;
23714;SDS011;12036;50.858;4.472;2024-01-27T10:45:36;8.00;;;2.40;;
23714;SDS011;12036;50.858;4.472;2024-01-27T10:48:03;5.77;;;1.73;;
23714;SDS011;12036;50.858;4.472;2024-01-27T10:50:30;8.40;;;2.17;;
23714;SDS011;12036;50.858;4.472;2024-01-27T10:53:04;7.78;;;1.92;;
23714;SDS011;12036;50.858;4.472;2024-01-27T10:55:34;11.52;;;2.60;;
23714;SDS011;12036;50.858;4.472;2024-01-27T10:58:03;7.47;;;1.73;;
23714;SDS011;12036;50.858;4.472;2024-01-27T11:00:29;12.20;;;2.15;;
23714;SDS011;12036;50.858;4.472;2024-01-27T11:02:58;11.27;;;2.13;;
23714;SDS011;12036;50.858;4.472;2024-01-27T11:05:27;13.23;;;2.25;;
23714;SDS011;12036;50.858;4.472;2024-01-27T11:07:54;4.53;;;1.20;;
23714;SDS011;12036;50.858;4.472;2024-01-27T11:10:21;6.57;;;1.90;;
23714;SDS011;12036;50.858;4.472;2024-01-27T11:12:50;12.82;;;2.22;;
23714;SDS011;12036;50.858;4.472;2024-01-27T11:15:18;8.25;;;2.20;;
23714;SDS011;12036;50.858;4.472;2024-01-27T11:17:50;4.57;;;1.58;;
23714;SDS011;12036;50.858;4.472;2024-01-27T11:20:15;9.55;;;2.17;;
23714;SDS011;12036;50.858;4.472;2024-01-27T11:22:42;11.00;;;1.73;;
23714;SDS011;12036;50.858;4.472;2024-01-27T11:27:38;8.93;;;1.77;;
23714;SDS011;12036;50.858;4.472;2024-01-27T11:30:27;8.32;;;1.90;;
23714;SDS011;12036;50.858;4.472;2024-01-27T11:32:55;10.50;;;2.72;;
23714;SDS011;12036;50.858;4.472;2024-01-27T11:35:22;8.10;;;1.75;;
23714;SDS011;12036;50.858;4.472;2024-01-27T11:37:48;6.45;;;1.75;;
23714;SDS011;12036;50.858;4.472;2024-01-27T11:40:14;11.32;;;1.90;;
23714;SDS011;12036;50.858;4.472;2024-01-27T11:42:41;5.00;;;1.88;;
23714;SDS011;12036;50.858;4.472;2024-01-27T11:45:10;4.05;;;1.60;;
23714;SDS011;12036;50.858;4.472;2024-01-27T11:47:36;9.35;;;2.10;;
23714;SDS011;12036;50.858;4.472;2024-01-27T11:50:01;8.57;;;2.55;;
23714;SDS011;12036;50.858;4.472;2024-01-27T11:52:28;8.85;;;1.65;;
23714;SDS011;12036;50.858;4.472;2024-01-27T11:54:57;8.85;;;1.80;;
23714;SDS011;12036;50.858;4.472;2024-01-27T11:57:24;6.35;;;2.28;;
23714;SDS011;12036;50.858;4.472;2024-01-27T11:59:50;5.80;;;1.80;;
23714;SDS011;12036;50.858;4.472;2024-01-27T12:02:17;9.25;;;1.60;;
23714;SDS011;12036;50.858;4.472;2024-01-27T12:04:42;4.70;;;1.63;;
23714;SDS011;12036;50.858;4.472;2024-01-27T12:07:08;8.52;;;1.60;;
23714;SDS011;12036;50.858;4.472;2024-01-27T12:09:35;9.50;;;1.52;;
23714;SDS011;12036;50.858;4.472;2024-01-27T12:12:02;10.30;;;1.92;;
23714;SDS011;12036;50.858;4.472;2024-01-27T12:14:41;7.03;;;1.65;;
23714;SDS011;12036;50.858;4.472;2024-01-27T12:17:10;9.82;;;1.85;;
23714;SDS011;12036;50.858;4.472;2024-01-27T12:19:37;7.88;;;1.90;;
23714;SDS011;12036;50.858;4.472;2024-01-27T12:22:03;6.03;;;1.77;;
23714;SDS011;12036;50.858;4.472;2024-01-27T12:24:29;6.47;;;1.55;;
23714;SDS011;12036;50.858;4.472;2024-01-27T12:26:57;8.50;;;2.10;;
23714;SDS011;12036;50.858;4.472;2024-01-27T12:29:24;4.78;;;1.40;;
23714;SDS011;12036;50.858;4.472;2024-01-27T12:31:49;8.82;;;1.90;;
23714;SDS011;12036;50.858;4.472;2024-01-27T12:34:17;7.47;;;1.65;;
23714;SDS011;12036;50.858;4.472;2024-01-27T12:36:43;7.50;;;1.80;;
23714;SDS011;12036;50.858;4.472;2024-01-27T12:39:09;5.15;;;1.58;;
23714;SDS011;12036;50.858;4.472;2024-01-27T12:41:35;5.07;;;1.70;;
23714;SDS011;12036;50.858;4.472;2024-01-27T12:44:01;5.60;;;1.40;;
23714;SDS011;12036;50.858;4.472;2024-01-27T12:46:27;6.50;;;1.83;;
23714;SDS011;12036;50.858;4.472;2024-01-27T12:48:53;10.30;;;1.95;;
23714;SDS011;12036;50.858;4.472;2024-01-27T12:51:19;5.88;;;1.65;;
23714;SDS011;12036;50.858;4.472;2024-01-27T12:53:45;6.57;;;1.60;;
23714;SDS011;12036;50.858;4.472;2024-01-27T12:56:11;4.65;;;1.30;;
23714;SDS011;12036;50.858;4.472;2024-01-27T12:58:38;8.60;;;1.77;;
23714;SDS011;12036;50.858;4.472;2024-01-27T13:01:05;6.05;;;1.60;;
23714;SDS011;12036;50.858;4.472;2024-01-27T13:03:31;3.53;;;1.42;;
23714;SDS011;12036;50.858;4.472;2024-01-27T13:05:57;5.57;;;1.63;;
23714;SDS011;12036;50.858;4.472;2024-01-27T13:08:23;6.55;;;1.80;;
23714;SDS011;12036;50.858;4.472;2024-01-27T13:10:49;6.43;;;1.75;;
23714;SDS011;12036;50.858;4.472;2024-01-27T13:13:15;5.00;;;1.58;;
23714;SDS011;12036;50.858;4.472;2024-01-27T13:15:41;5.93;;;1.50;;
23714;SDS011;12036;50.858;4.472;2024-01-27T13:18:08;6.05;;;1.27;;
23714;SDS011;12036;50.858;4.472;2024-01-27T13:20:35;5.13;;;1.80;;
23714;SDS011;12036;50.858;4.472;2024-01-27T13:23:01;5.82;;;1.40;;
23714;SDS011;12036;50.858;4.472;2024-01-27T13:25:27;8.40;;;1.42;;
23714;SDS011;12036;50.858;4.472;2024-01-27T13:27:52;7.03;;;1.60;;
23714;SDS011;12036;50.858;4.472;2024-01-27T13:30:18;4.65;;;0.90;;
23714;SDS011;12036;50.858;4.472;2024-01-27T13:32:44;7.10;;;1.33;;
23714;SDS011;12036;50.858;4.472;2024-01-27T13:35:09;5.78;;;1.42;;
23714;SDS011;12036;50.858;4.472;2024-01-27T13:37:35;7.68;;;1.65;;
23714;SDS011;12036;50.858;4.472;2024-01-27T13:40:02;5.10;;;1.20;;
23714;SDS011;12036;50.858;4.472;2024-01-27T13:42:29;3.55;;;1.20;;
23714;SDS011;12036;50.858;4.472;2024-01-27T13:44:55;5.82;;;1.40;;
23714;SDS011;12036;50.858;4.472;2024-01-27T13:47:21;5.70;;;1.58;;
23714;SDS011;12036;50.858;4.472;2024-01-27T13:49:46;6.20;;;1.40;;
23714;SDS011;12036;50.858;4.472;2024-01-27T13:52:13;6.20;;;1.40;;
23714;SDS011;12036;50.858;4.472;2024-01-27T13:54:38;4.20;;;1.40;;
23714;SDS011;12036;50.858;4.472;2024-01-27T13:57:04;7.43;;;2.15;;
23714;SDS011;12036;50.858;4.472;2024-01-27T13:59:30;7.45;;;1.50;;
23714;SDS011;12036;50.858;4.472;2024-01-27T14:01:56;7.53;;;1.27;;
23714;SDS011;12036;50.858;4.472;2024-01-27T14:04:23;5.97;;;1.50;;
23714;SDS011;12036;50.858;4.472;2024-01-27T14:06:50;6.00;;;1.17;;
23714;SDS011;12036;50.858;4.472;2024-01-27T14:09:16;9.38;;;1.42;;
23714;SDS011;12036;50.858;4.472;2024-01-27T14:11:42;6.10;;;1.40;;
23714;SDS011;12036;50.858;4.472;2024-01-27T14:14:08;5.47;;;1.48;;
23714;SDS011;12036;50.858;4.472;2024-01-27T14:16:34;7.65;;;1.80;;
23714;SDS011;12036;50.858;4.472;2024-01-27T14:19:00;5.55;;;1.38;;
23714;SDS011;12036;50.858;4.472;2024-01-27T14:21:25;8.05;;;1.83;;
23714;SDS011;12036;50.858;4.472;2024-01-27T14:23:52;9.05;;;1.63;;
23714;SDS011;12036;50.858;4.472;2024-01-27T14:26:25;10.05;;;1.75;;
23714;SDS011;12036;50.858;4.472;2024-01-27T14:28:53;5.07;;;1.50;;
23714;SDS011;12036;50.858;4.472;2024-01-27T14:31:19;6.25;;;1.45;;
23714;SDS011;12036;50.858;4.472;2024-01-27T14:33:44;5.97;;;1.80;;
23714;SDS011;12036;50.858;4.472;2024-01-27T14:36:10;8.35;;;1.98;;
23714;SDS011;12036;50.858;4.472;2024-01-27T14:38:36;6.60;;;1.30;;
23714;SDS011;12036;50.858;4.472;2024-01-27T14:41:02;5.28;;;1.48;;
23714;SDS011;12036;50.858;4.472;2024-01-27T14:43:28;10.48;;;1.85;;